createdAt,value
2018-10-07T00:00:25.575Z,15.05
2018-10-07T00:02:53.608Z,15.01
2018-10-07T00:05:21.259Z,14.99
2018-10-07T00:07:48.949Z,14.97
2018-10-07T00:10:16.624Z,14.95
2018-10-07T00:12:45.287Z,14.94
2018-10-07T00:15:12.933Z,14.94
2018-10-07T00:17:40.594Z,14.91
2018-10-07T00:20:08.250Z,14.90
2018-10-07T00:22:37.117Z,14.87
2018-10-07T00:25:04.752Z,14.85
2018-10-07T00:27:32.405Z,14.80
2018-10-07T00:30:01.966Z,14.78
2018-10-07T00:32:29.648Z,14.74
2018-10-07T00:34:57.303Z,14.72
2018-10-07T00:37:24.917Z,14.65
2018-10-07T00:39:53.074Z,14.60
2018-10-07T00:42:20.713Z,14.56
2018-10-07T00:44:48.308Z,14.52
2018-10-07T00:47:15.936Z,14.50
2018-10-07T00:49:43.864Z,14.47
2018-10-07T00:52:11.501Z,14.42
2018-10-07T00:54:39.121Z,14.38
2018-10-07T00:57:07.689Z,14.34
2018-10-07T00:59:37.515Z,14.31
2018-10-07T01:02:05.186Z,14.30
2018-10-07T01:04:32.820Z,14.32
2018-10-07T01:07:00.789Z,14.36
2018-10-07T01:09:28.433Z,14.42
2018-10-07T01:11:56.280Z,14.45
2018-10-07T01:14:26.021Z,14.50
2018-10-07T01:16:53.692Z,14.52
2018-10-07T01:19:21.325Z,14.54
2018-10-07T01:21:50.093Z,14.57
2018-10-07T01:24:17.701Z,14.57
2018-10-07T01:26:45.339Z,14.59
2018-10-07T01:29:13.821Z,14.63
2018-10-07T01:31:41.408Z,14.68
2018-10-07T01:34:09.069Z,14.73
2018-10-07T01:36:36.695Z,14.77
2018-10-07T01:39:04.844Z,14.82
2018-10-07T01:41:32.479Z,14.86
2018-10-07T01:44:00.155Z,14.91
2018-10-07T01:46:27.823Z,14.97
2018-10-07T01:48:55.802Z,15.01
2018-10-07T01:51:23.434Z,15.04
2018-10-07T01:53:51.073Z,15.09
2018-10-07T01:56:19.141Z,15.13
2018-10-07T01:58:46.734Z,15.14
2018-10-07T02:01:14.391Z,15.15
2018-10-07T02:03:42.295Z,15.17
2018-10-07T02:06:11.560Z,15.17
2018-10-07T02:08:39.194Z,15.18
2018-10-07T02:11:07.705Z,15.22
2018-10-07T02:13:35.334Z,15.26
2018-10-07T02:16:02.959Z,15.29
2018-10-07T02:18:30.574Z,15.31
2018-10-07T02:20:58.213Z,15.29
2018-10-07T02:23:26.329Z,15.29
2018-10-07T02:25:54.673Z,15.30
2018-10-07T02:28:22.285Z,15.28
2018-10-07T02:30:50.298Z,15.29
2018-10-07T02:33:20.102Z,15.30
2018-10-07T02:35:47.743Z,15.32
2018-10-07T02:38:15.369Z,15.33
2018-10-07T02:40:43.660Z,15.34
2018-10-07T02:43:11.379Z,15.36
2018-10-07T02:45:40.040Z,15.36
2018-10-07T02:48:07.629Z,15.38
2018-10-07T02:50:35.658Z,15.40
2018-10-07T02:53:03.405Z,15.42
2018-10-07T02:55:31.052Z,15.44
2018-10-07T02:57:59.061Z,15.44
2018-10-07T03:00:26.710Z,15.44
2018-10-07T03:02:54.389Z,15.46
2018-10-07T03:05:22.026Z,15.45
2018-10-07T03:07:49.934Z,15.46
2018-10-07T03:10:18.000Z,15.45
2018-10-07T03:12:45.621Z,15.45
2018-10-07T03:15:13.484Z,15.45
2018-10-07T03:17:41.157Z,15.45
2018-10-07T03:20:09.293Z,15.46
2018-10-07T03:22:39.950Z,15.46
2018-10-07T03:25:07.607Z,15.45
2018-10-07T03:27:35.616Z,15.44
2018-10-07T03:30:03.271Z,15.44
2018-10-07T03:32:30.951Z,15.43
2018-10-07T03:34:58.598Z,15.42
2018-10-07T03:37:26.576Z,15.42
2018-10-07T03:39:54.205Z,15.40
2018-10-07T03:42:21.852Z,15.41
2018-10-07T03:44:49.767Z,15.41
2018-10-07T03:47:17.435Z,15.40
2018-10-07T03:49:45.100Z,15.40
2018-10-07T03:52:12.772Z,15.37
2018-10-07T03:54:40.821Z,15.37
2018-10-07T03:57:08.509Z,15.33
2018-10-07T03:59:36.193Z,15.31
2018-10-07T04:02:04.230Z,15.28
2018-10-07T04:04:31.912Z,15.28
2018-10-07T04:06:59.553Z,15.27
2018-10-07T04:09:27.199Z,15.25
2018-10-07T04:11:55.278Z,15.21
2018-10-07T04:14:22.903Z,15.18
2018-10-07T04:16:50.545Z,15.16
2018-10-07T04:19:18.477Z,15.10
2018-10-07T04:21:51.262Z,14.98
2018-10-07T04:24:19.722Z,14.88
2018-10-07T04:26:47.398Z,14.77
2018-10-07T04:29:15.666Z,14.70
2018-10-07T04:31:43.327Z,14.62
2018-10-07T04:34:10.955Z,14.56
2018-10-07T04:36:38.648Z,14.46
2018-10-07T04:39:06.707Z,14.36
2018-10-07T04:41:34.338Z,14.29
2018-10-07T04:44:02.005Z,14.20
2018-10-07T04:46:29.717Z,14.12
2018-10-07T04:48:57.744Z,14.06
2018-10-07T04:51:25.381Z,14.01
2018-10-07T04:53:53.109Z,13.97
2018-10-07T04:56:20.770Z,13.90
2018-10-07T04:58:48.369Z,13.84
2018-10-07T05:01:16.005Z,13.78
2018-10-07T05:03:43.677Z,13.72
2018-10-07T05:06:11.608Z,13.66
2018-10-07T05:08:39.196Z,13.62
2018-10-07T05:11:06.956Z,13.59
2018-10-07T05:13:34.621Z,13.54
2018-10-07T05:16:02.727Z,13.48
2018-10-07T05:18:30.439Z,13.43
2018-10-07T05:20:58.155Z,13.39
2018-10-07T05:23:26.080Z,13.32
2018-10-07T05:25:53.725Z,13.29
2018-10-07T05:28:21.381Z,13.28
2018-10-07T05:30:50.850Z,13.25
2018-10-07T05:33:18.518Z,13.21
2018-10-07T05:35:46.162Z,13.19
2018-10-07T05:38:13.838Z,13.16
2018-10-07T05:40:41.924Z,13.13
2018-10-07T05:43:09.525Z,13.04
2018-10-07T05:45:37.131Z,13.00
2018-10-07T05:48:05.173Z,12.96
2018-10-07T05:50:32.829Z,12.89
2018-10-07T05:53:00.460Z,12.84
2018-10-07T05:55:28.221Z,12.80
2018-10-07T05:57:57.513Z,12.75
2018-10-07T06:00:25.208Z,12.67
2018-10-07T06:02:52.868Z,12.64
2018-10-07T06:05:21.185Z,12.59
2018-10-07T06:07:49.080Z,12.58
2018-10-07T06:10:16.735Z,12.58
2018-10-07T06:12:44.406Z,12.56
2018-10-07T06:15:12.492Z,12.55
2018-10-07T06:17:40.141Z,12.55
2018-10-07T06:20:07.771Z,12.56
2018-10-07T06:22:35.376Z,12.55
2018-10-07T06:25:03.332Z,12.56
2018-10-07T06:27:30.988Z,12.57
2018-10-07T06:29:58.680Z,12.55
2018-10-07T06:32:26.341Z,12.54
2018-10-07T06:34:53.981Z,12.52
2018-10-07T06:37:21.610Z,12.53
2018-10-07T06:39:49.213Z,12.52
2018-10-07T06:42:16.842Z,12.47
2018-10-07T06:44:44.829Z,12.46
2018-10-07T06:47:12.427Z,12.43
2018-10-07T06:49:40.067Z,12.42
2018-10-07T06:52:08.048Z,12.39
2018-10-07T06:54:35.648Z,12.37
2018-10-07T06:57:04.705Z,12.35
2018-10-07T06:59:32.359Z,12.33
2018-10-07T07:02:00.016Z,12.32
2018-10-07T07:04:27.672Z,12.31
2018-10-07T07:06:55.628Z,12.33
2018-10-07T07:09:23.328Z,12.35
2018-10-07T07:11:50.969Z,12.37
2018-10-07T07:14:19.029Z,12.41
2018-10-07T07:16:46.623Z,12.43
2018-10-07T07:19:14.262Z,12.44
2018-10-07T07:21:42.206Z,12.45
2018-10-07T07:24:10.714Z,12.43
2018-10-07T07:26:38.391Z,12.42
2018-10-07T07:29:06.428Z,12.44
2018-10-07T07:31:34.184Z,12.45
2018-10-07T07:34:02.457Z,12.44
2018-10-07T07:36:31.308Z,12.41
2018-10-07T07:38:58.943Z,12.41
2018-10-07T07:41:26.594Z,12.41
2018-10-07T07:43:54.680Z,12.41
2018-10-07T07:46:22.279Z,12.37
2018-10-07T07:48:49.933Z,12.32
2018-10-07T07:51:18.935Z,12.34
2018-10-07T07:53:47.246Z,12.37
2018-10-07T07:56:14.897Z,12.41
2018-10-07T07:58:43.668Z,12.45
2018-10-07T08:01:14.085Z,12.49
2018-10-07T08:03:41.734Z,12.56
2018-10-07T08:06:09.777Z,12.62
2018-10-07T08:08:37.417Z,12.63
2018-10-07T08:11:05.094Z,12.71
2018-10-07T08:13:33.198Z,12.78
2018-10-07T08:16:01.900Z,12.83
2018-10-07T08:18:30.436Z,12.90
2018-10-07T08:21:00.349Z,12.99
2018-10-07T08:23:28.163Z,13.07
2018-10-07T08:25:55.776Z,13.12
2018-10-07T08:28:23.829Z,13.12
2018-10-07T08:30:51.481Z,13.09
2018-10-07T08:33:19.265Z,13.05
2018-10-07T08:35:50.047Z,13.00
2018-10-07T08:38:17.766Z,12.94
2018-10-07T08:40:45.419Z,12.89
2018-10-07T08:43:13.504Z,12.84
2018-10-07T08:45:41.137Z,12.92
2018-10-07T08:48:08.833Z,13.06
2018-10-07T08:50:36.843Z,13.24
2018-10-07T08:53:04.616Z,13.41
2018-10-07T08:55:32.239Z,13.39
2018-10-07T08:58:00.292Z,13.26
2018-10-07T09:00:27.952Z,13.17
2018-10-07T09:02:57.384Z,13.09
2018-10-07T09:05:25.582Z,13.11
2018-10-07T09:07:54.425Z,13.26
2018-10-07T09:10:22.077Z,13.39
2018-10-07T09:12:50.120Z,13.55
2018-10-07T09:15:18.429Z,13.71
2018-10-07T09:17:47.114Z,13.86
2018-10-07T09:20:15.221Z,14.00
2018-10-07T09:22:43.580Z,14.14
2018-10-07T09:25:11.245Z,14.24
2018-10-07T09:27:39.382Z,14.35
2018-10-07T09:30:08.008Z,14.45
2018-10-07T09:32:35.776Z,14.52
2018-10-07T09:35:04.257Z,14.59
2018-10-07T09:37:31.924Z,14.72
2018-10-07T09:39:59.529Z,14.94
2018-10-07T09:42:28.453Z,15.28
2018-10-07T09:44:56.086Z,15.81
2018-10-07T09:47:23.747Z,16.57
2018-10-07T09:49:52.257Z,17.19
2018-10-07T09:52:20.644Z,17.73
2018-10-07T09:54:48.501Z,17.87
2018-10-07T09:57:16.421Z,18.38
2018-10-07T09:59:44.859Z,18.99
2018-10-07T10:02:12.480Z,19.78
2018-10-07T10:04:41.559Z,20.53
2018-10-07T10:07:10.326Z,21.19
2018-10-07T10:09:38.640Z,21.49
2018-10-07T10:12:07.523Z,22.08
2018-10-07T10:14:35.230Z,22.68
2018-10-07T10:17:05.810Z,23.06
2018-10-07T10:19:33.907Z,23.52
2018-10-07T10:22:02.537Z,23.42
2018-10-07T10:24:31.317Z,23.37
2018-10-07T10:26:59.224Z,23.28
2018-10-07T10:29:27.914Z,23.10
2018-10-07T10:31:56.337Z,22.48
2018-10-07T10:34:24.236Z,21.64
2018-10-07T10:36:52.984Z,21.53
2018-10-07T10:39:20.747Z,21.67
2018-10-07T10:41:49.411Z,21.42
2018-10-07T10:44:17.584Z,21.45
2018-10-07T10:46:45.225Z,21.60
2018-10-07T10:49:13.588Z,21.90
2018-10-07T10:51:42.236Z,22.17
2018-10-07T10:54:09.862Z,22.37
2018-10-07T10:56:37.985Z,22.46
2018-10-07T11:01:39.672Z,22.55
2018-10-07T11:04:08.260Z,23.01
2018-10-07T11:06:36.799Z,23.33
2018-10-07T11:09:06.637Z,23.59
2018-10-07T11:11:34.770Z,23.97
2018-10-07T11:14:02.465Z,23.91
2018-10-07T11:16:30.297Z,23.72
2018-10-07T11:18:58.716Z,23.93
2018-10-07T11:21:27.180Z,24.03
2018-10-07T11:23:56.680Z,23.75
2018-10-07T11:26:24.714Z,23.52
2018-10-07T11:28:52.385Z,23.69
2018-10-07T11:31:20.792Z,23.77
2018-10-07T11:33:48.429Z,23.78
2018-10-07T11:36:16.149Z,23.74
2018-10-07T11:38:44.261Z,23.63
2018-10-07T11:41:13.517Z,23.28
2018-10-07T11:43:41.335Z,22.86
2018-10-07T11:46:10.394Z,22.57
2018-10-07T11:48:38.840Z,22.37
2018-10-07T11:51:06.739Z,22.38
2018-10-07T11:53:35.264Z,22.69
2018-10-07T11:56:02.986Z,23.11
2018-10-07T11:58:32.264Z,23.73
2018-10-07T12:01:01.734Z,24.33
2018-10-07T12:03:29.897Z,24.86
2018-10-07T12:06:00.280Z,25.14
2018-10-07T12:08:28.448Z,24.99
2018-10-07T12:10:56.473Z,24.75
2018-10-07T12:13:25.819Z,24.39
2018-10-07T12:15:54.491Z,24.23
2018-10-07T12:18:23.236Z,24.06
2018-10-07T12:20:51.350Z,23.89
2018-10-07T12:23:19.679Z,23.67
2018-10-07T12:25:47.325Z,23.31
2018-10-07T12:28:15.440Z,23.04
2018-10-07T12:30:43.910Z,22.75
2018-10-07T12:33:11.789Z,22.32
2018-10-07T12:35:40.272Z,21.99
2018-10-07T12:38:08.205Z,21.64
2018-10-07T12:40:35.862Z,21.20
2018-10-07T12:43:03.501Z,20.74
2018-10-07T12:45:35.216Z,20.29
2018-10-07T12:48:02.829Z,19.85
2018-10-07T12:50:30.468Z,19.48
2018-10-07T12:52:59.962Z,19.20
2018-10-07T12:55:27.639Z,18.95
2018-10-07T12:57:58.776Z,18.75
2018-10-07T13:00:28.005Z,18.55
2018-10-07T13:02:56.296Z,18.36
2018-10-07T13:05:24.996Z,18.19
2018-10-07T13:07:54.013Z,18.05
2018-10-07T13:10:21.653Z,17.93
2018-10-07T13:12:49.302Z,17.81
2018-10-07T13:15:19.240Z,17.72
2018-10-07T13:17:47.595Z,17.66
2018-10-07T13:20:16.441Z,17.59
2018-10-07T13:22:45.224Z,17.54
2018-10-07T13:25:13.418Z,17.55
2018-10-07T13:27:41.631Z,17.52
2018-10-07T13:30:09.728Z,17.47
2018-10-07T13:32:38.386Z,17.42
2018-10-07T13:35:05.987Z,17.39
2018-10-07T13:37:34.940Z,17.34
2018-10-07T13:40:03.645Z,17.33
2018-10-07T13:42:32.461Z,17.35
2018-10-07T13:45:00.698Z,17.38
2018-10-07T13:47:28.324Z,17.43
2018-10-07T13:49:57.505Z,17.45
2018-10-07T13:52:25.509Z,17.45
2018-10-07T13:54:53.685Z,17.46
2018-10-07T13:57:21.346Z,17.48
2018-10-07T13:59:54.434Z,17.51
2018-10-07T14:02:24.228Z,17.51
2018-10-07T14:04:52.225Z,17.54
2018-10-07T14:07:19.872Z,17.59
2018-10-07T14:09:47.580Z,17.64
2018-10-07T14:12:17.642Z,17.71
2018-10-07T14:14:45.306Z,17.77
2018-10-07T14:17:12.989Z,17.86
2018-10-07T14:19:42.804Z,17.93
2018-10-07T14:22:10.477Z,17.99
2018-10-07T14:24:38.160Z,18.04
2018-10-07T14:27:06.642Z,18.08
2018-10-07T14:29:34.417Z,18.08
2018-10-07T14:32:02.797Z,18.03
2018-10-07T14:34:30.512Z,17.98
2018-10-07T14:36:58.174Z,17.92
2018-10-07T14:39:26.210Z,17.89
2018-10-07T14:41:53.897Z,17.81
2018-10-07T14:44:21.524Z,17.72
2018-10-07T14:46:50.245Z,17.67
2018-10-07T14:49:19.169Z,17.63
2018-10-07T14:51:47.767Z,17.54
2018-10-07T14:54:15.672Z,17.45
2018-10-07T14:56:43.301Z,17.39
2018-10-07T14:59:12.636Z,17.37
2018-10-07T15:01:40.698Z,17.40
2018-10-07T15:04:08.324Z,17.51
2018-10-07T15:06:37.269Z,17.64
2018-10-07T15:09:07.346Z,17.77
2018-10-07T15:11:35.237Z,17.89
2018-10-07T15:14:02.894Z,17.98
2018-10-07T15:16:38.727Z,18.05
2018-10-07T15:19:06.424Z,18.02
2018-10-07T15:21:35.716Z,17.83
2018-10-07T15:24:04.329Z,17.66
2018-10-07T15:26:31.932Z,17.57
2018-10-07T15:28:59.898Z,17.56
2018-10-07T15:31:29.440Z,17.53
2018-10-07T15:33:57.120Z,17.46
2018-10-07T15:36:24.801Z,17.30
2018-10-07T15:38:53.861Z,17.09
2018-10-07T15:41:21.521Z,16.89
2018-10-07T15:43:49.178Z,16.68
2018-10-07T15:46:17.307Z,16.47
2018-10-07T15:48:45.893Z,16.29
2018-10-07T15:51:13.533Z,16.10
2018-10-07T15:53:42.182Z,15.92
2018-10-07T15:56:09.809Z,15.76
2018-10-07T15:58:37.470Z,15.63
2018-10-07T16:01:05.588Z,15.53
2018-10-07T16:03:33.844Z,15.41
2018-10-07T16:06:02.772Z,15.30
2018-10-07T16:08:31.560Z,15.20
2018-10-07T16:10:59.168Z,15.12
2018-10-07T16:13:26.772Z,15.05
2018-10-07T16:15:55.553Z,14.99
2018-10-07T16:18:24.883Z,14.95
2018-10-07T16:20:52.484Z,14.90
2018-10-07T16:23:21.313Z,14.84
2018-10-07T16:25:50.674Z,14.81
2018-10-07T16:28:18.272Z,14.76
2018-10-07T16:30:46.255Z,14.70
2018-10-07T16:33:14.901Z,14.64
2018-10-07T16:35:43.157Z,14.59
2018-10-07T16:38:14.739Z,14.52
2018-10-07T16:40:43.986Z,14.44
2018-10-07T16:43:12.215Z,14.35
2018-10-07T16:45:41.360Z,14.28
2018-10-07T16:48:10.429Z,14.19
2018-10-07T16:50:38.040Z,14.11
2018-10-07T16:53:06.707Z,14.05
2018-10-07T16:55:35.565Z,13.97
2018-10-07T16:58:03.263Z,13.88
2018-10-07T17:00:31.287Z,13.80
2018-10-07T17:02:58.884Z,13.71
2018-10-07T17:05:26.554Z,13.61
2018-10-07T17:07:54.728Z,13.51
2018-10-07T17:10:22.890Z,13.41
2018-10-07T17:12:51.634Z,13.29
2018-10-07T17:15:21.266Z,13.18
2018-10-07T17:17:49.465Z,13.09
2018-10-07T17:20:18.313Z,13.01
2018-10-07T17:22:47.244Z,12.95
2018-10-07T17:25:14.873Z,12.86
2018-10-07T17:27:42.549Z,12.77
2018-10-07T17:30:10.618Z,12.67
2018-10-07T17:32:39.665Z,12.59
2018-10-07T17:35:08.112Z,12.50
2018-10-07T17:37:37.741Z,12.41
2018-10-07T17:40:07.042Z,12.33
2018-10-07T17:42:34.666Z,12.25
2018-10-07T17:45:04.528Z,12.17
2018-10-07T17:47:33.128Z,12.11
2018-10-07T17:50:07.542Z,12.04
2018-10-07T17:52:41.321Z,11.98
2018-10-07T17:55:10.385Z,11.93
2018-10-07T17:57:39.501Z,11.88
2018-10-07T18:00:09.127Z,11.82
2018-10-07T18:02:36.808Z,11.77
2018-10-07T18:05:05.371Z,11.73
2018-10-07T18:07:33.341Z,11.69
2018-10-07T18:10:02.991Z,11.66
2018-10-07T18:12:31.676Z,11.64
2018-10-07T18:14:59.693Z,11.60
2018-10-07T18:17:27.341Z,11.57
2018-10-07T18:19:55.253Z,11.53
2018-10-07T18:22:24.465Z,11.47
2018-10-07T18:24:52.360Z,11.43
2018-10-07T18:27:19.967Z,11.38
2018-10-07T18:29:48.176Z,11.35
2018-10-07T18:32:16.681Z,11.31
2018-10-07T18:34:44.711Z,11.26
2018-10-07T18:37:16.510Z,11.22
2018-10-07T18:39:45.918Z,11.16
2018-10-07T18:44:48.561Z,11.06
2018-10-07T18:47:16.288Z,11.04
2018-10-07T18:49:45.656Z,11.00
2018-10-07T18:52:13.848Z,10.94
2018-10-07T18:54:42.671Z,10.89
2018-10-07T18:57:10.505Z,10.84
2018-10-07T18:59:38.450Z,10.77
2018-10-07T19:02:06.685Z,10.70
2018-10-07T19:04:34.282Z,10.62
2018-10-07T19:07:02.278Z,10.52
2018-10-07T19:09:30.976Z,10.45
2018-10-07T19:11:59.196Z,10.37
2018-10-07T19:14:28.849Z,10.29
2018-10-07T19:16:56.478Z,10.20
2018-10-07T19:19:24.641Z,10.10
2018-10-07T19:21:53.762Z,10.01
2018-10-07T19:24:21.370Z,9.94
2018-10-07T19:26:50.257Z,9.87
2018-10-07T19:29:18.928Z,9.82
2018-10-07T19:31:47.123Z,9.77
2018-10-07T19:34:14.820Z,9.73
2018-10-07T19:36:45.406Z,9.66
2018-10-07T19:39:13.366Z,9.61
2018-10-07T19:41:42.024Z,9.54
2018-10-07T19:44:11.689Z,9.48
2018-10-07T19:46:39.369Z,9.41
2018-10-07T19:49:06.997Z,9.37
2018-10-07T19:51:35.729Z,9.29
2018-10-07T19:54:03.416Z,9.24
2018-10-07T19:56:32.564Z,9.20
2018-10-07T19:59:02.070Z,9.13
2018-10-07T20:01:29.723Z,9.10
2018-10-07T20:04:00.023Z,9.06
2018-10-07T20:06:28.135Z,9.03
2018-10-07T20:08:57.290Z,9.00
2018-10-07T20:11:24.888Z,8.98
2018-10-07T20:13:53.763Z,8.97
2018-10-07T20:16:22.377Z,8.95
2018-10-07T20:18:50.748Z,8.96
2018-10-07T20:21:20.699Z,8.96
2018-10-07T20:23:48.409Z,8.93
2018-10-07T20:26:17.456Z,8.86
2018-10-07T20:28:47.926Z,8.78
2018-10-07T20:31:15.602Z,8.71
2018-10-07T20:33:43.290Z,8.63
2018-10-07T20:38:53.170Z,8.51
2018-10-07T20:41:21.074Z,8.51
2018-10-07T20:43:48.691Z,8.49
2018-10-07T20:46:16.344Z,8.48
2018-10-07T20:48:44.486Z,8.49
2018-10-07T20:51:12.141Z,8.50
2018-10-07T20:53:39.812Z,8.52
2018-10-07T20:56:08.820Z,8.52
2018-10-07T20:58:36.547Z,8.52
2018-10-07T21:01:04.324Z,8.53
2018-10-07T21:06:14.961Z,8.55
2018-10-07T21:08:43.805Z,8.55
2018-10-07T21:11:11.445Z,8.51
2018-10-07T21:13:39.486Z,8.49
2018-10-07T21:16:07.637Z,8.45
2018-10-07T21:18:35.260Z,8.41
2018-10-07T21:21:02.924Z,8.36
2018-10-07T21:26:05.617Z,8.29
2018-10-07T21:28:33.529Z,8.24
2018-10-07T21:31:01.234Z,8.18
2018-10-07T21:33:30.061Z,8.12
2018-10-07T21:35:59.354Z,8.05
2018-10-07T21:38:27.925Z,7.96
2018-10-07T21:40:55.902Z,7.84
2018-10-07T21:43:23.682Z,7.74
2018-10-07T21:45:51.969Z,7.70
2018-10-07T21:48:21.544Z,7.68
2018-10-07T21:50:49.250Z,7.68
2018-10-07T21:53:18.617Z,7.68
2018-10-07T21:55:46.590Z,7.70
2018-10-07T21:58:15.046Z,7.69
2018-10-07T22:00:42.717Z,7.70
2018-10-07T22:03:11.472Z,7.69
2018-10-07T22:05:39.167Z,7.70
2018-10-07T22:08:06.809Z,7.67
2018-10-07T22:10:37.748Z,7.66
2018-10-07T22:13:05.389Z,7.64
2018-10-07T22:15:33.520Z,7.61
2018-10-07T22:18:01.462Z,7.57
2018-10-07T22:20:29.108Z,7.52
2018-10-07T22:22:56.761Z,7.46
2018-10-07T22:25:24.852Z,7.36
2018-10-07T22:27:52.697Z,7.29
2018-10-07T22:30:20.328Z,7.23
2018-10-07T22:32:48.224Z,7.18
2018-10-07T22:35:16.647Z,7.17
2018-10-07T22:37:44.336Z,7.15
2018-10-07T22:40:12.250Z,7.13
2018-10-07T22:42:40.840Z,7.12
2018-10-07T22:45:09.204Z,7.12
2018-10-07T22:47:38.906Z,7.12
2018-10-07T22:50:06.517Z,7.11
2018-10-07T22:52:34.189Z,7.08
2018-10-07T22:55:02.818Z,7.03
2018-10-07T22:57:30.786Z,6.98
2018-10-07T22:59:58.392Z,6.93
2018-10-07T23:02:27.676Z,6.85
2018-10-07T23:04:55.649Z,6.79
2018-10-07T23:07:23.448Z,6.75
2018-10-07T23:09:53.094Z,6.71
2018-10-07T23:12:21.133Z,6.69
2018-10-07T23:14:48.817Z,6.66
2018-10-07T23:17:17.224Z,6.67
2018-10-07T23:19:44.913Z,6.67
2018-10-07T23:22:13.909Z,6.66
2018-10-07T23:24:41.562Z,6.65
2018-10-07T23:27:09.206Z,6.68
2018-10-07T23:29:37.161Z,6.68
2018-10-07T23:32:04.760Z,6.68
2018-10-07T23:34:32.638Z,6.66
2018-10-07T23:37:00.582Z,6.65
2018-10-07T23:39:28.783Z,6.62
2018-10-07T23:41:56.411Z,6.61
2018-10-07T23:44:24.066Z,6.60
2018-10-07T23:46:52.025Z,6.59
2018-10-07T23:49:19.660Z,6.59
2018-10-07T23:51:47.955Z,6.58
2018-10-07T23:54:19.564Z,6.58
2018-10-07T23:56:47.168Z,6.57
2018-10-07T23:59:14.766Z,6.58
